Airfield :
LOGIN :

Register | Disclaimer

   EN    FR    IT 

 










Legend :    VFR   Marginal VFR   IFR   Intensive IFR   Very Intensive IFR
Visi :
Ceiling :
>= 8 km
>= 3000ft
5 to 8 km
1000 to 3000 ft
1500m to 5 km
500 to 1000 ft
800 to 1500m
200 to 500 ft
< 800m
< 200 ft
Symbols :   Thunderstorms  Fog  Heavy snow  Heavy precipitations  Wind > 20 kt
SIGMETs :     Misc.  Thunderstorms  Icing  Turbulence  Mountain Waves  Volcanic Ashes






- Airport Elevation : 433 ft
- IATA code : CCF


LFMK - Carcassonne

CURRENT METAR :
  • 072030Z AUTO 08012KT 9999 BKN015 BKN130 13/09 Q1026

EXPIRED METARs :
  • 072000Z AUTO 08011KT CAVOK 13/09 Q1026
  • 071930Z AUTO 08010KT 060V120 CAVOK 14/09 Q1025
  • 071900Z AUTO 08012KT CAVOK 14/09 Q1025
  • 071830Z AUTO 08013KT 9999 FEW048 BKN100 OVC120 14/08 Q1025
  • 071800Z AUTO 08014KT 9999 OVC048 14/08 Q1025 NOSIG

TAF TAF LFMK
Valid from the 07 at 15:00 until the 08 at 15:00 UTC


071400Z 0715/0815 08015G25KT CAVOK
BECMG 0716/0718 09010KT
TEMPO 0810/0815 09015G25KT



MET'MAP, your aeronautical weather chart ! - Copyright ORBIFLY December 2007 - Disclaimer

ORBIFLY MET'MAP TEAM :

Programming & Development : Alexandra Zaïnal
Concept & original design : Baudouin d'Aumeries
Assistance for programming : Marc-Olivier Méhu
Technical & hardware support : Manuel Goepfert

Contact : metmap@orbifly.com




SOURCES & CREDITS :

   NOAA